Time;durP1;ratioP1;P1;durP2;ratioP2;P2;SDS_P1;SDS_P2;PMS_P1;PMS_P2;Temp;Humidity;BMP_temperature;BMP_pressure;BME280_temperature;BME280_humidity;BME280_pressure;Samples;Min_cycle;Max_cycle;Signal;HPM_P1;HPM_P2
2022/09/08 00:02:18;;;;;;;4.57;2.90;;;17.70;1.00;;;;;;5077674;28;20484;-77
2022/09/08 00:05:14;;;;;;;5.20;2.90;;;17.60;1.00;;;;;;5076437;28;20401;-77
2022/09/08 00:07:43;;;;;;;8.00;3.33;;;17.70;1.00;;;;;;5085634;28;20504;-77
2022/09/08 00:10:11;;;;;;;4.23;3.13;;;17.70;1.00;;;;;;5074216;28;20377;-77
2022/09/08 00:12:39;;;;;;;3.50;3.17;;;17.80;1.00;;;;;;5077256;28;20495;-77
2022/09/08 00:15:10;;;;;;;19.77;3.50;;;17.90;1.00;;;;;;5078010;28;20768;-83
2022/09/08 00:17:37;;;;;;;5.37;3.10;;;17.90;1.00;;;;;;5078853;28;20423;-77
2022/09/08 00:20:07;;;;;;;5.77;3.17;;;18.00;1.00;;;;;;5075315;28;20494;-77
2022/09/08 00:22:34;;;;;;;5.10;2.77;;;18.00;1.00;;;;;;5081010;28;20436;-77
2022/09/08 00:25:01;;;;;;;3.67;2.90;;;17.90;1.00;;;;;;5076194;28;20417;-77
2022/09/08 00:27:48;;;;;;;3.40;2.90;;;17.90;1.00;;;;;;5091917;28;20499;-77
2022/09/08 00:30:17;;;;;;;5.30;2.90;;;17.90;1.00;;;;;;5073564;28;20404;-82
2022/09/08 00:32:42;;;;;;;3.10;2.90;;;17.90;1.00;;;;;;5072228;28;20537;-83
2022/09/08 00:35:19;;;;;;;4.50;3.33;;;18.00;1.00;;;;;;5080608;28;21277;-83
2022/09/08 00:38:21;;;;;;;6.13;3.67;;;18.10;1.00;;;;;;5082374;28;20636;-83
2022/09/08 00:41:11;;;;;;;7.90;3.77;;;18.20;1.00;;;;;;5075866;28;20900;-83
2022/09/08 00:43:44;;;;;;;11.87;4.27;;;18.10;1.00;;;;;;5076973;28;20732;-83
2022/09/08 00:46:09;;;;;;;5.33;3.60;;;18.30;1.00;;;;;;5085224;28;20408;-76
2022/09/08 00:48:58;;;;;;;7.90;3.73;;;18.30;1.00;;;;;;5082703;28;20411;-77
2022/09/08 00:51:26;;;;;;;7.10;3.33;;;18.30;1.00;;;;;;5003492;28;20210;-77
2022/09/08 00:53:54;;;;;;;3.53;3.20;;;18.40;1.00;;;;;;5008699;28;20954;-77
2022/09/08 00:56:31;;;;;;;8.57;3.03;;;18.40;1.00;;;;;;4992800;28;20999;-77
2022/09/08 00:59:02;;;;;;;3.40;3.10;;;18.40;1.00;;;;;;5010450;28;20770;-77
2022/09/08 01:01:32;;;;;;;9.77;3.90;;;18.50;1.00;;;;;;5014409;28;20403;-83
2022/09/08 01:04:03;;;;;;;3.40;3.10;;;18.40;1.00;;;;;;5008792;28;20409;-83
2022/09/08 01:12:57;;;;;;;3.50;2.93;;;18.40;1.00;;;;;;5014476;28;20461;-83
2022/09/08 01:15:42;;;;;;;5.57;3.37;;;18.40;1.00;;;;;;5014257;28;20434;-83
2022/09/08 01:18:18;;;;;;;8.63;3.60;;;18.40;1.00;;;;;;5014669;28;20423;-84
2022/09/08 01:21:07;;;;;;;5.90;3.37;;;18.50;1.00;;;;;;5013540;28;20512;-84
2022/09/08 01:24:07;;;;;;;11.00;4.30;;;18.40;1.00;;;;;;5014304;28;20935;-84
2022/09/08 01:26:50;;;;;;;7.33;4.30;;;18.40;1.00;;;;;;5003576;28;20865;-84
2022/09/08 01:29:38;;;;;;;6.43;4.00;;;18.40;1.00;;;;;;5064911;28;20450;-85
2022/09/08 01:32:05;;;;;;;8.17;4.10;;;18.40;1.00;;;;;;5081959;28;20502;-83
2022/09/08 01:34:50;;;;;;;7.40;4.03;;;18.40;1.00;;;;;;5094487;28;20417;-84
2022/09/08 01:37:15;;;;;;;8.67;4.37;;;18.40;1.00;;;;;;5089582;28;20439;-83
2022/09/08 01:40:18;;;;;;;4.80;3.90;;;18.50;1.00;;;;;;5076024;28;20465;-84
2022/09/08 01:43:18;;;;;;;12.40;3.87;;;18.40;1.00;;;;;;5086132;28;20183;-85
2022/09/08 01:45:48;;;;;;;8.43;4.07;;;18.40;1.00;;;;;;5082202;28;20410;-84
2022/09/08 01:48:18;;;;;;;5.17;3.80;;;18.40;1.00;;;;;;5081097;28;20387;-77
2022/09/08 01:50:59;;;;;;;13.37;4.20;;;18.40;1.00;;;;;;5090756;28;20424;-77
2022/09/08 01:53:42;;;;;;;10.63;4.00;;;18.50;1.00;;;;;;5082369;28;20455;-77
2022/09/08 01:56:12;;;;;;;12.07;4.23;;;18.50;1.00;;;;;;5082540;28;20407;-77
2022/09/08 01:58:38;;;;;;;7.87;4.50;;;18.40;1.00;;;;;;5080511;28;20403;-77
2022/09/08 02:01:06;;;;;;;8.03;4.27;;;18.40;1.00;;;;;;5092411;28;20477;-82
2022/09/08 02:03:48;;;;;;;6.50;4.53;;;18.40;1.00;;;;;;5088972;28;20209;-84
2022/09/08 02:06:18;;;;;;;7.90;4.23;;;18.30;1.00;;;;;;5090426;28;20397;-84
2022/09/08 02:08:52;;;;;;;8.10;4.33;;;18.30;1.00;;;;;;5086509;28;20447;-84
2022/09/08 02:11:19;;;;;;;6.97;4.30;;;18.30;1.00;;;;;;5077024;28;20468;-83
2022/09/08 02:13:45;;;;;;;4.80;4.23;;;18.30;1.00;;;;;;5089889;28;20455;-84
2022/09/08 02:16:21;;;;;;;6.30;4.40;;;18.30;1.00;;;;;;5076978;28;20426;-84
2022/09/08 02:18:49;;;;;;;5.87;3.80;;;18.30;1.00;;;;;;5089955;28;20178;-77
2022/09/08 02:21:19;;;;;;;7.43;4.37;;;18.40;1.00;;;;;;5088617;28;20847;-77
2022/09/08 02:23:49;;;;;;;11.00;4.63;;;18.40;1.00;;;;;;5087141;28;20431;-77
2022/09/08 02:26:20;;;;;;;11.00;4.77;;;18.40;1.00;;;;;;5079345;28;20390;-77
2022/09/08 02:28:51;;;;;;;6.63;4.23;;;18.40;1.00;;;;;;5085432;28;20414;-77
2022/09/08 02:34:54;;;;;;;5.20;4.30;;;18.40;1.00;;;;;;5081471;28;20448;-84
2022/09/08 02:37:30;;;;;;;8.70;4.27;;;18.40;1.00;;;;;;5078699;28;20742;-85
2022/09/08 02:40:10;;;;;;;9.53;5.00;;;18.50;1.00;;;;;;5081301;28;20825;-85
2022/09/08 02:42:48;;;;;;;5.90;4.50;;;18.50;1.00;;;;;;5075031;28;20397;-84
2022/09/08 02:45:18;;;;;;;6.33;4.77;;;18.50;1.00;;;;;;5090534;28;20408;-84
2022/09/08 02:47:48;;;;;;;17.57;4.43;;;18.50;1.00;;;;;;5083501;28;20382;-77
2022/09/08 02:50:19;;;;;;;6.57;4.80;;;18.40;1.00;;;;;;5087987;28;20432;-78
2022/09/08 02:52:48;;;;;;;6.27;4.43;;;18.40;1.00;;;;;;5074789;28;20426;-77
2022/09/08 02:55:14;;;;;;;7.70;4.70;;;18.40;1.00;;;;;;5075255;28;20512;-77
2022/09/08 02:57:42;;;;;;;9.23;4.50;;;18.40;1.00;;;;;;5075114;28;20466;-77
2022/09/08 03:00:30;;;;;;;5.17;4.67;;;18.40;1.00;;;;;;5080995;28;20174;-77
2022/09/08 03:03:06;;;;;;;8.33;4.83;;;18.40;1.00;;;;;;5076414;28;20439;-84
2022/09/08 03:05:36;;;;;;;5.80;5.03;;;18.40;1.00;;;;;;5080457;28;20911;-84
2022/09/08 03:08:20;;;;;;;10.80;4.73;;;18.40;1.00;;;;;;5074057;28;20489;-84
2022/09/08 03:10:48;;;;;;;9.73;4.97;;;18.40;1.00;;;;;;5080781;28;20413;-84
2022/09/08 03:13:19;;;;;;;8.03;5.63;;;18.40;1.00;;;;;;5080355;28;21018;-84
2022/09/08 03:15:50;;;;;;;7.93;4.70;;;18.40;1.00;;;;;;5074398;28;20371;-85
2022/09/08 03:18:18;;;;;;;16.03;5.10;;;18.40;1.00;;;;;;5079229;28;20456;-77
2022/09/08 03:20:45;;;;;;;5.40;4.63;;;18.40;1.00;;;;;;5075472;28;20408;-77
2022/09/08 03:23:19;;;;;;;8.47;5.20;;;18.40;1.00;;;;;;5084744;28;20438;-78
2022/09/08 03:25:48;;;;;;;6.83;5.53;;;18.40;1.00;;;;;;5073626;28;20388;-78
2022/09/08 03:28:19;;;;;;;6.70;4.50;;;18.40;1.00;;;;;;5087405;28;20416;-77
2022/09/08 03:30:49;;;;;;;6.00;4.70;;;18.40;1.00;;;;;;5076196;28;20416;-77
2022/09/08 03:33:15;;;;;;;17.43;5.70;;;18.50;1.00;;;;;;5084948;28;20853;-77
2022/09/08 03:35:42;;;;;;;9.53;5.20;;;18.50;1.00;;;;;;5075822;28;20504;-77
2022/09/08 03:38:18;;;;;;;13.17;5.70;;;18.50;1.00;;;;;;5083263;28;20423;-78
2022/09/08 03:40:45;;;;;;;10.27;5.50;;;18.40;1.00;;;;;;5075774;28;20392;-78
2022/09/08 03:43:36;;;;;;;11.63;5.30;;;18.40;1.00;;;;;;5086305;28;20757;-78
2022/09/08 03:46:18;;;;;;;7.03;5.33;;;18.30;1.00;;;;;;5077889;28;20394;-78
2022/09/08 03:49:06;;;;;;;8.70;5.43;;;18.30;1.00;;;;;;5086488;28;20769;-78
2022/09/08 03:51:36;;;;;;;12.63;5.33;;;18.30;1.00;;;;;;5074925;28;20755;-77
2022/09/08 03:56:56;;;;;;;7.30;5.63;;;18.40;1.00;;;;;;5073856;28;20472;-77
2022/09/08 03:59:25;;;;;;;8.90;5.53;;;18.40;1.00;;;;;;5081160;28;20415;-77
2022/09/08 04:02:00;;;;;;;11.17;5.53;;;18.40;1.00;;;;;;5079570;28;20192;-78
2022/09/08 04:05:06;;;;;;;8.27;5.20;;;18.40;1.00;;;;;;5079698;28;20464;-84
2022/09/08 04:07:43;;;;;;;8.40;5.40;;;18.40;1.00;;;;;;5076085;28;20398;-85
2022/09/08 04:10:19;;;;;;;8.50;5.20;;;18.40;1.00;;;;;;5079685;28;20398;-84
2022/09/08 04:12:46;;;;;;;11.47;5.10;;;18.50;1.00;;;;;;5084686;28;20458;-79
2022/09/08 04:15:24;;;;;;;9.87;5.33;;;18.40;1.00;;;;;;5084128;28;20473;-78
2022/09/08 04:18:18;;;;;;;7.83;6.07;;;18.50;1.00;;;;;;5077461;28;20900;-84
2022/09/08 04:21:02;;;;;;;7.10;5.53;;;18.40;1.00;;;;;;5086316;28;20439;-84
2022/09/08 04:23:43;;;;;;;10.87;6.00;;;18.40;1.00;;;;;;5094410;28;20773;-84
2022/09/08 04:26:13;;;;;;;7.90;5.50;;;18.40;1.00;;;;;;5079138;28;20428;-85
2022/09/08 04:28:39;;;;;;;8.50;5.40;;;18.40;1.00;;;;;;5082335;28;20430;-84
2022/09/08 04:31:24;;;;;;;12.13;6.17;;;18.40;1.00;;;;;;5087752;28;20425;-84
2022/09/08 04:34:01;;;;;;;7.57;5.40;;;18.40;1.60;;;;;;5077849;28;20833;-78
2022/09/08 04:36:31;;;;;;;12.30;5.83;;;18.40;1.60;;;;;;5077969;28;20398;-78
2022/09/08 04:38:58;;;;;;;10.97;6.07;;;18.40;1.00;;;;;;5083833;28;20496;-78
2022/09/08 04:41:27;;;;;;;9.10;5.30;;;18.40;1.00;;;;;;5082123;28;20394;-78
2022/09/08 04:43:56;;;;;;;10.33;6.07;;;18.40;1.00;;;;;;5076721;28;20425;-78
2022/09/08 04:46:37;;;;;;;10.73;5.40;;;18.40;1.00;;;;;;5079910;28;20447;-78
2022/09/08 04:49:06;;;;;;;7.67;5.37;;;18.40;1.00;;;;;;5092047;28;20399;-82
2022/09/08 04:51:43;;;;;;;7.77;5.10;;;18.40;1.00;;;;;;5080920;28;20409;-81
2022/09/08 04:54:09;;;;;;;9.23;5.37;;;18.40;1.00;;;;;;5090321;28;20427;-81
2022/09/08 04:56:37;;;;;;;8.83;5.10;;;18.40;1.00;;;;;;5083515;28;20367;-82
2022/09/08 04:59:25;;;;;;;9.63;4.73;;;18.40;1.00;;;;;;5094119;28;20440;-82
2022/09/08 05:02:00;;;;;;;13.27;5.20;;;18.40;1.00;;;;;;5080985;28;20436;-81
2022/09/08 05:04:37;;;;;;;5.27;4.50;;;18.40;1.00;;;;;;5075023;28;20904;-78
2022/09/08 05:07:03;;;;;;;9.33;4.33;;;18.40;1.00;;;;;;5089159;28;20374;-78
2022/09/08 05:09:30;;;;;;;7.40;5.17;;;18.40;1.00;;;;;;5082888;28;20430;-77
2022/09/08 05:12:01;;;;;;;9.20;5.23;;;18.30;1.00;;;;;;5085142;28;20401;-77
2022/09/08 05:14:26;;;;;;;8.47;4.70;;;18.30;1.00;;;;;;5093244;28;20426;-76
2022/09/08 05:16:52;;;;;;;7.90;5.40;;;18.30;1.00;;;;;;5081842;28;20403;-77
2022/09/08 05:19:18;;;;;;;8.10;4.33;;;18.20;1.00;;;;;;5079803;28;20925;-78
2022/09/08 05:22:00;;;;;;;7.13;4.33;;;18.10;1.00;;;;;;5075452;28;20174;-78
2022/09/08 05:24:30;;;;;;;13.60;4.93;;;18.20;1.00;;;;;;5083189;28;20431;-77
2022/09/08 05:27:06;;;;;;;6.30;4.10;;;18.20;1.00;;;;;;5094025;28;20394;-77
2022/09/08 05:29:36;;;;;;;8.10;5.17;;;18.20;1.00;;;;;;5077784;28;20435;-78
2022/09/08 05:32:06;;;;;;;8.80;4.43;;;18.20;1.00;;;;;;5088259;28;20467;-78
2022/09/08 05:34:36;;;;;;;8.90;4.50;;;18.20;1.00;;;;;;5081021;28;20459;-78
2022/09/08 05:37:06;;;;;;;11.03;4.70;;;18.20;1.00;;;;;;5084043;28;20994;-78
2022/09/08 05:39:36;;;;;;;10.67;4.67;;;18.20;1.00;;;;;;5086992;28;20904;-79
2022/09/08 05:42:07;;;;;;;10.93;4.00;;;18.20;1.00;;;;;;5077882;28;20428;-79
2022/09/08 05:44:32;;;;;;;9.70;4.30;;;18.20;1.00;;;;;;5077039;28;20447;-78
2022/09/08 05:47:06;;;;;;;18.43;4.87;;;18.20;1.00;;;;;;5080186;28;20891;-79
2022/09/08 05:49:42;;;;;;;8.30;4.73;;;18.20;1.00;;;;;;5091650;28;20181;-79
2022/09/08 05:52:36;;;;;;;16.57;5.27;;;18.20;1.00;;;;;;5081959;28;20459;-79
2022/09/08 05:55:02;;;;;;;11.63;5.27;;;18.20;1.00;;;;;;5090437;28;20402;-78
2022/09/08 05:57:36;;;;;;;8.60;4.77;;;18.20;1.00;;;;;;5084422;28;20426;-79
2022/09/08 06:00:08;;;;;;;13.23;4.90;;;18.20;1.00;;;;;;5084534;28;20216;-79
2022/09/08 06:02:37;;;;;;;8.10;5.00;;;18.20;1.00;;;;;;5084269;28;20386;-79
2022/09/08 06:05:07;;;;;;;6.50;4.80;;;18.20;1.00;;;;;;5088259;28;20424;-87
2022/09/08 06:08:06;;;;;;;7.47;4.87;;;18.10;4.10;;;;;;5101369;28;20424;-87
2022/09/08 06:10:37;;;;;;;11.90;5.70;;;18.20;1.00;;;;;;5088948;28;20445;-87
2022/09/08 06:13:07;;;;;;;7.13;4.37;;;18.10;1.40;;;;;;5074503;28;20810;-87
2022/09/08 06:15:33;;;;;;;12.40;5.23;;;18.10;1.00;;;;;;5083033;28;20919;-86
2022/09/08 06:21:37;;;;;;;8.33;4.43;;;18.10;3.50;;;;;;5076074;28;20193;-86
2022/09/08 06:24:05;;;;;;;8.30;4.17;;;18.10;2.20;;;;;;5073763;28;20454;-90
2022/09/08 06:26:53;;;;;;;7.40;5.00;;;18.10;2.60;;;;;;5074293;28;20604;-91
2022/09/08 06:29:24;;;;;;;6.33;4.90;;;18.10;3.80;;;;;;5075220;28;20381;-90
2022/09/08 06:32:24;;;;;;;7.43;4.53;;;18.10;1.00;;;;;;5075528;28;20421;-90
2022/09/08 06:35:05;;;;;;;11.13;5.07;;;18.10;1.00;;;;;;5087170;28;20434;-79
2022/09/08 06:38:11;;;;;;;8.37;4.90;;;18.10;2.10;;;;;;5074245;28;20391;-79
2022/09/08 06:40:42;;;;;;;9.87;4.93;;;18.10;2.10;;;;;;5074404;28;20400;-79
2022/09/08 06:43:34;;;;;;;13.53;4.50;;;18.20;1.60;;;;;;5091840;28;20399;-79
2022/09/08 06:46:17;;;;;;;7.57;5.03;;;18.20;2.10;;;;;;4999476;28;20431;-79
2022/09/08 06:48:54;;;;;;;7.90;5.00;;;18.20;4.60;;;;;;4995871;28;20525;-80
2022/09/08 06:52:04;;;;;;;12.53;4.80;;;18.30;1.30;;;;;;5002740;28;20454;-80
2022/09/08 06:54:32;;;;;;;6.20;4.50;;;18.30;1.00;;;;;;5011325;28;20416;-80
2022/09/08 06:57:26;;;;;;;7.60;4.50;;;18.30;1.00;;;;;;5011997;28;20774;-79
2022/09/08 07:00:33;;;;;;;8.53;4.87;;;18.30;1.20;;;;;;5011920;28;20472;-82
2022/09/08 07:03:29;;;;;;;7.13;5.00;;;18.30;1.00;;;;;;4933073;29;20433;-82
2022/09/08 07:06:05;;;;;;;6.30;5.17;;;18.40;1.00;;;;;;4896716;29;20448;-81
2022/09/08 07:09:01;;;;;;;9.90;5.03;;;18.40;1.00;;;;;;4900620;29;20423;-81
2022/09/08 07:12:04;;;;;;;8.50;5.03;;;18.40;1.00;;;;;;4891909;29;20409;-82
2022/09/08 07:15:13;;;;;;;8.13;5.47;;;18.50;1.00;;;;;;4894813;29;20838;-82
2022/09/08 07:18:16;;;;;;;8.50;5.83;;;18.40;1.00;;;;;;4888448;29;20445;-81
2022/09/08 07:20:42;;;;;;;7.37;5.40;;;18.40;1.00;;;;;;4887605;29;20539;-81
2022/09/08 07:23:28;;;;;;;14.03;5.37;;;18.40;6.30;;;;;;4930003;28;20447;-81
2022/09/08 07:26:29;;;;;;;12.10;5.73;;;18.50;1.60;;;;;;4952563;28;20291;-82
2022/09/08 07:29:21;;;;;;;8.87;5.10;;;18.50;1.00;;;;;;4952546;28;20411;-81
2022/09/08 07:31:51;;;;;;;5.73;4.77;;;18.50;1.00;;;;;;4961984;28;20503;-82
2022/09/08 07:37:45;;;;;;;7.40;4.70;;;18.50;1.00;;;;;;4955968;28;20379;-89
2022/09/08 07:40:37;;;;;;;4.57;4.10;;;18.60;1.20;;;;;;4974442;28;20496;-81
2022/09/08 07:43:10;;;;;;;5.10;4.40;;;18.40;3.80;;;;;;5040694;28;20898;-81
2022/09/08 07:46:10;;;;;;;4.80;4.37;;;18.50;8.60;;;;;;5080215;28;20514;-80
2022/09/08 07:49:13;;;;;;;9.73;3.93;;;18.60;5.10;;;;;;5087403;28;20424;-79
2022/09/08 07:52:06;;;;;;;4.93;4.33;;;18.60;1.00;;;;;;5090703;28;20859;-78
2022/09/08 07:54:56;;;;;;;5.17;3.87;;;18.70;1.10;;;;;;5079783;28;20439;-79
2022/09/08 07:57:31;;;;;;;5.03;3.57;;;18.80;1.00;;;;;;5073527;28;20428;-79
2022/09/08 08:00:19;;;;;;;7.87;3.83;;;18.80;1.00;;;;;;5077942;28;20422;-78
2022/09/08 08:03:08;;;;;;;5.13;3.50;;;18.80;1.00;;;;;;5074972;28;20489;-79
2022/09/08 08:06:24;;;;;;;8.03;3.13;;;18.90;1.00;;;;;;5077875;28;20456;-80
2022/09/08 08:08:52;;;;;;;3.23;2.90;;;18.90;1.00;;;;;;5091989;28;20496;-79
2022/09/08 08:11:22;;;;;;;11.03;3.10;;;18.90;1.00;;;;;;5083040;28;20420;-82
2022/09/08 08:14:30;;;;;;;7.23;5.03;;;18.90;1.00;;;;;;5079406;28;20517;-80
2022/09/08 08:17:29;;;;;;;3.83;2.93;;;19.00;1.00;;;;;;5084562;28;20404;-79
2022/09/08 08:20:32;;;;;;;6.20;2.73;;;19.20;1.00;;;;;;5071747;28;20748;-82
2022/09/08 08:23:35;;;;;;;4.80;2.73;;;19.20;1.00;;;;;;5081312;28;20389;-87
2022/09/08 08:26:33;;;;;;;8.57;3.57;;;19.40;1.00;;;;;;5075947;28;20439;-78
2022/09/08 08:29:30;;;;;;;5.33;2.70;;;19.40;1.00;;;;;;5080147;28;20481;-78
2022/09/08 08:32:20;;;;;;;2.53;1.87;;;19.60;1.00;;;;;;5088652;28;20492;-80
2022/09/08 08:35:18;;;;;;;4.03;2.00;;;19.50;1.00;;;;;;5072827;28;20546;-79
2022/09/08 08:37:49;;;;;;;5.43;2.17;;;19.70;1.00;;;;;;5063663;28;20395;-79
2022/09/08 08:40:36;;;;;;;1.57;1.50;;;20.00;1.00;;;;;;5072087;28;20786;-79
2022/09/08 08:43:40;;;;;;;1.67;1.57;;;20.10;1.00;;;;;;5082396;28;20433;-80
2022/09/08 08:46:31;;;;;;;2.23;1.63;;;20.40;1.00;;;;;;5018471;28;20842;-79
2022/09/08 08:49:22;;;;;;;1.90;1.27;;;20.70;1.00;;;;;;5027081;28;20428;-85
2022/09/08 08:52:42;;;;;;;1.87;1.70;;;20.70;1.00;;;;;;5011050;28;20535;-79
2022/09/08 08:55:38;;;;;;;4.83;1.50;;;20.90;1.00;;;;;;5026860;28;20436;-80
2022/09/08 08:58:38;;;;;;;2.27;1.70;;;20.60;1.00;;;;;;5034224;28;20452;-79
2022/09/08 09:01:13;;;;;;;1.10;1.10;;;20.60;1.00;;;;;;5010446;28;20470;-80
2022/09/08 09:04:04;;;;;;;2.53;1.23;;;20.80;1.00;;;;;;5034085;28;20465;-79
2022/09/08 09:06:58;;;;;;;1.33;1.23;;;20.90;1.00;;;;;;5034417;28;20409;-79
2022/09/08 09:10:09;;;;;;;4.47;1.10;;;21.20;1.00;;;;;;5030363;28;21025;-80
2022/09/08 09:13:14;;;;;;;5.03;1.40;;;21.10;1.00;;;;;;4955739;29;20441;-80
2022/09/08 09:16:30;;;;;;;1.43;0.90;;;21.20;1.00;;;;;;4952979;28;20512;-80
2022/09/08 09:19:28;;;;;;;1.47;1.23;;;21.30;1.00;;;;;;4955906;29;20394;-80
2022/09/08 09:22:14;;;;;;;1.30;1.20;;;21.40;1.00;;;;;;4956833;28;20430;-78
2022/09/08 09:25:11;;;;;;;1.43;1.10;;;21.40;1.00;;;;;;5014181;28;20859;-78
2022/09/08 09:27:51;;;;;;;1.03;0.90;;;21.60;1.00;;;;;;5015091;28;20417;-79
2022/09/08 09:31:08;;;;;;;1.20;1.00;;;21.60;1.00;;;;;;5015936;28;20418;-78
2022/09/08 09:33:37;;;;;;;0.80;0.80;;;21.80;1.00;;;;;;4993736;28;20490;-79
2022/09/08 09:36:37;;;;;;;1.63;1.20;;;22.00;1.00;;;;;;4994147;28;20445;-78
2022/09/08 09:42:42;;;;;;;1.03;0.70;;;22.20;1.00;;;;;;4992419;28;20403;-81
2022/09/08 09:45:22;;;;;;;2.80;0.93;;;21.90;1.00;;;;;;4993926;28;20409;-81
2022/09/08 09:51:18;;;;;;;1.07;0.97;;;21.90;1.00;;;;;;5044278;28;20400;-82
2022/09/08 09:54:07;;;;;;;1.00;0.87;;;21.50;1.00;;;;;;5047475;28;20486;-79
2022/09/08 09:56:51;;;;;;;1.17;1.00;;;21.50;1.00;;;;;;5036271;28;20448;-79
2022/09/08 09:59:33;;;;;;;8.93;1.00;;;21.30;1.00;;;;;;5052208;28;20465;-80
2022/09/08 10:02:17;;;;;;;0.73;0.73;;;21.20;1.00;;;;;;5043912;28;20435;-80
2022/09/08 10:05:12;;;;;;;1.20;0.90;;;21.20;1.00;;;;;;5042951;28;20436;-76
2022/09/08 10:08:11;;;;;;;1.00;0.80;;;21.00;1.00;;;;;;5050011;28;20489;-72
2022/09/08 10:10:46;;;;;;;0.83;0.70;;;21.00;1.00;;;;;;5079917;28;20432;-72
2022/09/08 10:13:59;;;;;;;1.03;0.70;;;21.20;1.00;;;;;;5084304;28;20452;-72
2022/09/08 10:16:58;;;;;;;1.10;0.73;;;21.40;1.00;;;;;;5079356;28;20460;-72
2022/09/08 10:19:57;;;;;;;2.90;0.80;;;21.40;1.00;;;;;;5073951;28;20467;-72
2022/09/08 10:22:30;;;;;;;0.93;0.93;;;21.30;1.00;;;;;;5079679;28;20439;-77
2022/09/08 10:25:27;;;;;;;2.10;0.80;;;21.10;1.00;;;;;;5074775;28;20415;-77
2022/09/08 10:28:30;;;;;;;2.67;0.93;;;21.10;1.00;;;;;;5088282;28;20454;-78
2022/09/08 10:31:20;;;;;;;4.73;0.90;;;21.00;1.00;;;;;;5086678;28;20448;-77
2022/09/08 10:34:14;;;;;;;1.27;0.80;;;20.80;1.00;;;;;;5082952;28;20464;-79
2022/09/08 10:37:09;;;;;;;3.17;0.80;;;21.00;1.00;;;;;;5085336;28;20441;-82
2022/09/08 10:40:27;;;;;;;2.30;0.93;;;21.20;1.00;;;;;;5075856;28;20426;-81
2022/09/08 10:43:23;;;;;;;1.63;0.70;;;21.50;1.00;;;;;;4976698;28;20560;-82
2022/09/08 10:49:28;;;;;;;0.97;0.60;;;21.50;1.00;;;;;;5012447;28;20756;-82
2022/09/08 10:52:01;;;;;;;0.80;0.70;;;21.40;1.00;;;;;;5011253;28;20436;-82
2022/09/08 10:58:30;;;;;;;0.90;0.60;;;21.90;1.00;;;;;;5001308;28;20429;-81
2022/09/08 11:01:21;;;;;;;2.50;0.60;;;22.30;1.00;;;;;;4994573;28;20423;-81
2022/09/08 11:04:18;;;;;;;3.30;2.37;;;22.60;1.00;;;;;;4982171;28;20436;-81
2022/09/08 11:07:30;;;;;;;3.73;0.60;;;22.90;1.00;;;;;;4992551;28;20388;-80
2022/09/08 11:10:33;;;;;;;1.27;0.70;;;22.80;1.00;;;;;;4976091;28;20808;-82
2022/09/08 11:13:33;;;;;;;1.43;0.60;;;22.80;1.00;;;;;;4979071;28;20455;-82
2022/09/08 11:16:16;;;;;;;4.83;0.57;;;22.70;1.00;;;;;;4970392;28;20832;-82
2022/09/08 11:18:51;;;;;;;1.27;0.50;;;22.60;1.00;;;;;;5037689;28;20963;-80
2022/09/08 11:21:29;;;;;;;2.97;0.90;;;22.80;1.00;;;;;;5059635;28;20396;-80
2022/09/08 11:24:18;;;;;;;1.10;0.73;;;23.00;1.00;;;;;;5064976;28;20433;-77
2022/09/08 11:27:40;;;;;;;1.47;0.60;;;23.10;1.00;;;;;;5067196;28;20454;-77
2022/09/08 11:30:27;;;;;;;0.90;0.60;;;23.10;1.00;;;;;;5011305;28;20444;-77
2022/09/08 11:33:32;;;;;;;2.70;0.60;;;23.10;1.00;;;;;;4990330;28;20502;-77
2022/09/08 11:36:15;;;;;;;1.00;0.60;;;22.90;1.00;;;;;;5010974;28;20900;-76
2022/09/08 11:39:16;;;;;;;1.33;0.60;;;22.90;1.00;;;;;;5006579;28;20435;-80
2022/09/08 11:42:12;;;;;;;0.87;0.50;;;23.00;1.00;;;;;;5034410;28;20425;-80
2022/09/08 11:44:49;;;;;;;0.90;0.60;;;22.80;1.00;;;;;;5051256;28;20418;-80
2022/09/08 11:47:36;;;;;;;1.83;0.60;;;22.90;1.00;;;;;;5051271;28;20431;-81
2022/09/08 11:50:13;;;;;;;2.00;0.57;;;23.00;1.00;;;;;;5042779;28;20458;-79
2022/09/08 11:52:54;;;;;;;3.47;0.70;;;23.00;1.00;;;;;;5043532;28;21155;-79
2022/09/08 11:55:51;;;;;;;1.00;0.70;;;22.80;1.00;;;;;;5051009;28;20427;-80
2022/09/08 11:58:50;;;;;;;4.53;0.83;;;22.70;1.00;;;;;;5051230;28;20414;-79
2022/09/08 12:01:41;;;;;;;1.53;0.70;;;22.70;1.00;;;;;;5043409;28;20504;-80
2022/09/08 12:04:31;;;;;;;3.53;0.70;;;22.80;1.00;;;;;;5064654;28;20948;-79
2022/09/08 12:07:16;;;;;;;0.97;0.70;;;22.80;1.00;;;;;;5077642;28;20439;-79
2022/09/08 12:10:02;;;;;;;2.80;0.53;;;22.70;1.00;;;;;;5081400;28;20907;-79
2022/09/08 12:12:51;;;;;;;0.67;0.60;;;22.90;1.00;;;;;;5076295;28;20951;-79
2022/09/08 12:16:08;;;;;;;1.07;0.60;;;23.20;1.00;;;;;;5079064;28;21122;-80
2022/09/08 12:18:51;;;;;;;2.40;0.60;;;23.50;1.00;;;;;;5011456;28;20425;-78
2022/09/08 12:21:30;;;;;;;1.20;0.60;;;23.60;1.00;;;;;;5024323;28;20477;-79
2022/09/08 12:24:40;;;;;;;2.43;0.93;;;23.90;1.00;;;;;;5012683;28;20442;-79
2022/09/08 12:27:20;;;;;;;4.80;1.20;;;23.90;1.00;;;;;;4936894;29;20527;-80
2022/09/08 12:30:19;;;;;;;2.30;0.80;;;23.70;1.00;;;;;;4952830;28;20435;-79
2022/09/08 12:33:25;;;;;;;10.33;0.70;;;23.90;1.00;;;;;;4962825;28;20476;-80
2022/09/08 12:36:28;;;;;;;2.70;0.60;;;23.90;1.00;;;;;;4956531;29;20438;-79
2022/09/08 12:39:06;;;;;;;6.50;0.97;;;23.80;1.00;;;;;;4880829;29;20946;-76
2022/09/08 12:41:37;;;;;;;1.30;0.80;;;23.70;1.00;;;;;;4880786;29;21182;-76
2022/09/08 12:44:09;;;;;;;5.13;0.80;;;23.70;1.00;;;;;;4899520;29;20419;-76
2022/09/08 12:47:09;;;;;;;1.90;0.77;;;24.00;1.00;;;;;;4886470;29;20446;-76
2022/09/08 12:49:56;;;;;;;1.60;0.63;;;24.50;1.00;;;;;;4848811;29;20434;-76
2022/09/08 12:52:24;;;;;;;1.53;0.60;;;24.90;1.00;;;;;;4847171;29;20886;-76
2022/09/08 12:55:07;;;;;;;1.97;0.60;;;25.20;1.00;;;;;;4872410;29;20424;-79
2022/09/08 12:58:12;;;;;;;1.30;0.60;;;25.00;1.00;;;;;;4878537;29;20997;-79
2022/09/08 13:00:52;;;;;;;0.80;0.70;;;25.10;1.00;;;;;;4880416;29;20519;-79
2022/09/08 13:03:48;;;;;;;2.10;0.60;;;24.80;1.00;;;;;;4898053;29;20496;-79
2022/09/08 13:06:24;;;;;;;1.27;0.50;;;24.70;1.00;;;;;;4894396;29;20455;-79
2022/09/08 13:09:24;;;;;;;0.80;0.60;;;24.70;1.00;;;;;;4882297;29;20452;-77
2022/09/08 13:11:55;;;;;;;1.00;0.60;;;24.50;1.00;;;;;;4893236;29;20431;-76
2022/09/08 13:14:43;;;;;;;1.43;0.70;;;24.40;1.00;;;;;;4883288;29;20474;-76
2022/09/08 13:17:31;;;;;;;1.87;0.70;;;24.00;1.00;;;;;;4934325;29;20445;-76
2022/09/08 13:20:16;;;;;;;5.13;0.73;;;24.00;1.00;;;;;;4925010;29;20480;-76
2022/09/08 13:22:58;;;;;;;0.97;0.60;;;24.00;1.00;;;;;;4932816;29;20453;-76
2022/09/08 13:25:32;;;;;;;4.47;0.80;;;24.00;1.00;;;;;;4941599;28;20448;-76
2022/09/08 13:28:31;;;;;;;5.07;1.00;;;24.10;1.00;;;;;;5005996;28;20453;-76
2022/09/08 13:31:25;;;;;;;3.10;0.67;;;24.50;1.00;;;;;;5010649;28;20754;-82
2022/09/08 13:34:00;;;;;;;4.50;0.70;;;24.60;1.00;;;;;;5003279;28;20977;-71
2022/09/08 13:36:50;;;;;;;2.47;0.60;;;24.60;1.00;;;;;;4993736;28;20449;-70
2022/09/08 13:39:44;;;;;;;2.83;0.77;;;24.70;1.00;;;;;;5007697;28;20424;-71
2022/09/08 13:42:40;;;;;;;4.03;0.97;;;25.20;1.00;;;;;;5029491;28;20470;-82
2022/09/08 13:45:45;;;;;;;1.67;0.80;;;25.40;1.00;;;;;;5084283;28;20427;-82
2022/09/08 13:49:06;;;;;;;1.20;0.70;;;25.30;1.00;;;;;;5074218;28;20435;-82
2022/09/08 13:55:27;;;;;;;3.10;0.73;;;25.70;1.00;;;;;;5076111;28;20506;-80
2022/09/08 13:58:29;;;;;;;1.73;0.60;;;25.30;1.00;;;;;;4977596;28;20420;-81
2022/09/08 14:01:10;;;;;;;4.00;0.67;;;25.30;1.00;;;;;;4998377;28;20434;-81
2022/09/08 14:04:08;;;;;;;1.23;0.60;;;25.40;1.00;;;;;;5013205;28;20410;-79
2022/09/08 14:06:58;;;;;;;1.80;0.90;;;25.50;1.00;;;;;;4992758;28;20860;-77
2022/09/08 14:09:26;;;;;;;1.80;0.80;;;25.50;1.00;;;;;;4991805;28;20456;-78
2022/09/08 14:12:24;;;;;;;2.10;0.80;;;25.20;1.00;;;;;;4993754;28;20977;-78
2022/09/08 14:15:27;;;;;;;0.93;0.60;;;25.00;1.00;;;;;;4982534;28;20464;-78
2022/09/08 14:18:42;;;;;;;0.80;0.70;;;24.60;1.00;;;;;;4916616;29;20479;-78
2022/09/08 14:21:38;;;;;;;2.43;0.70;;;24.40;1.00;;;;;;4920470;29;20428;-79
2022/09/08 14:24:25;;;;;;;3.23;0.90;;;23.90;1.00;;;;;;4922448;29;20450;-80
2022/09/08 14:26:54;;;;;;;3.47;0.73;;;23.70;1.00;;;;;;4916987;29;20426;-80
2022/09/08 14:29:30;;;;;;;1.30;0.70;;;23.50;1.00;;;;;;4913892;29;20432;-80
2022/09/08 14:32:29;;;;;;;1.57;0.83;;;23.20;1.00;;;;;;4928051;29;20526;-80
2022/09/08 14:35:19;;;;;;;1.10;0.60;;;23.00;1.00;;;;;;4993378;28;20487;-80
2022/09/08 14:38:00;;;;;;;4.83;1.27;;;23.10;1.00;;;;;;4991977;28;20452;-80
2022/09/08 14:40:43;;;;;;;2.40;0.83;;;23.10;1.00;;;;;;4993350;28;20409;-80
2022/09/08 14:43:31;;;;;;;0.73;0.67;;;23.30;1.00;;;;;;4992987;28;20413;-80
2022/09/08 14:49:55;;;;;;;2.10;0.73;;;24.00;1.00;;;;;;5012459;28;20404;-80
2022/09/08 14:52:49;;;;;;;3.30;0.77;;;23.90;1.00;;;;;;5054777;28;20464;-77
2022/09/08 14:56:03;;;;;;;6.40;1.03;;;24.00;1.00;;;;;;5087275;28;20745;-79
2022/09/08 14:58:58;;;;;;;0.90;0.60;;;24.20;1.00;;;;;;5026528;28;20441;-79
2022/09/08 15:01:38;;;;;;;1.73;0.60;;;24.50;1.00;;;;;;5031260;28;20428;-80